createdAt,value
2023-03-26T00:00:24.206Z,50.08
2023-03-26T00:01:24.908Z,50.38
2023-03-26T00:02:24.917Z,47.83
2023-03-26T00:03:24.873Z,47.21
2023-03-26T00:04:24.845Z,46.49
2023-03-26T00:05:24.895Z,44.74
2023-03-26T00:06:24.863Z,45.36
2023-03-26T00:07:24.818Z,44.84
2023-03-26T00:08:24.815Z,45.77
2023-03-26T00:09:24.794Z,47.11
2023-03-26T00:10:24.773Z,46.80
2023-03-26T00:11:24.043Z,47.83
2023-03-26T00:12:24.747Z,46.91
2023-03-26T00:13:24.008Z,45.98
2023-03-26T00:14:24.040Z,45.25
2023-03-26T00:15:23.988Z,46.70
2023-03-26T00:16:24.003Z,47.83
2023-03-26T00:17:23.938Z,46.49
2023-03-26T00:18:23.947Z,46.19
2023-03-26T00:19:23.923Z,45.67
2023-03-26T00:20:24.594Z,45.77
2023-03-26T00:21:23.905Z,46.80
2023-03-26T00:22:23.877Z,47.31
2023-03-26T00:23:23.874Z,47.65
2023-03-26T00:24:23.882Z,46.62
2023-03-26T00:25:24.531Z,46.20
2023-03-26T00:26:23.834Z,44.66
2023-03-26T00:27:23.807Z,43.32
2023-03-26T00:28:23.806Z,43.42
2023-03-26T00:29:23.798Z,43.52
2023-03-26T00:30:23.782Z,42.29
2023-03-26T00:31:23.767Z,41.97
2023-03-26T00:32:23.727Z,42.08
2023-03-26T00:33:23.799Z,40.86
2023-03-26T00:34:23.733Z,40.22
2023-03-26T00:35:23.715Z,41.77
2023-03-26T00:36:23.799Z,42.69
2023-03-26T00:37:23.668Z,42.90
2023-03-26T00:38:23.669Z,43.81
2023-03-26T00:39:23.672Z,43.81
2023-03-26T00:40:23.657Z,44.43
2023-03-26T00:41:23.629Z,45.05
2023-03-26T00:42:23.614Z,44.56
2023-03-26T00:43:22.887Z,43.32
2023-03-26T00:44:23.634Z,42.80
2023-03-26T00:45:23.594Z,43.52
2023-03-26T00:46:23.577Z,43.32
2023-03-26T00:47:24.250Z,43.01
2023-03-26T00:48:34.319Z,43.11
2023-03-26T00:49:24.293Z,42.80
2023-03-26T00:50:23.298Z,43.01
2023-03-26T00:51:22.819Z,41.87
2023-03-26T00:52:23.294Z,41.46
2023-03-26T00:53:24.150Z,41.77
2023-03-26T00:54:23.297Z,42.06
2023-03-26T00:55:23.295Z,42.37
2023-03-26T00:56:24.104Z,42.27
2023-03-26T00:57:34.831Z,41.75
2023-03-26T00:58:24.300Z,41.96
2023-03-26T00:59:22.690Z,41.54
2023-03-26T01:00:22.744Z,41.24
2023-03-26T01:01:23.145Z,41.54
2023-03-26T01:02:22.836Z,42.37
2023-03-26T01:03:27.762Z,42.08
2023-03-26T01:04:23.430Z,41.15
2023-03-26T01:05:23.342Z,40.01
2023-03-26T01:06:23.320Z,40.53
2023-03-26T01:07:22.966Z,40.72
2023-03-26T01:08:22.564Z,40.63
2023-03-26T01:09:23.278Z,40.94
2023-03-26T01:10:22.540Z,40.53
2023-03-26T01:11:23.231Z,40.33
2023-03-26T01:12:23.220Z,40.22
2023-03-26T01:13:23.879Z,39.81
2023-03-26T01:14:23.194Z,38.88
2023-03-26T01:15:22.546Z,38.47
2023-03-26T01:16:23.230Z,37.74
2023-03-26T01:17:23.119Z,36.41
2023-03-26T01:18:22.548Z,36.92
2023-03-26T01:19:23.120Z,36.71
2023-03-26T01:20:23.112Z,37.64
2023-03-26T01:21:23.117Z,37.13
2023-03-26T01:22:23.061Z,38.06
2023-03-26T01:23:23.071Z,39.50
2023-03-26T01:24:23.070Z,38.78
2023-03-26T01:25:23.040Z,39.61
2023-03-26T01:26:23.032Z,40.22
2023-03-26T01:27:23.006Z,39.09
2023-03-26T01:28:23.002Z,39.19
2023-03-26T01:29:22.989Z,38.78
2023-03-26T01:30:23.211Z,39.61
2023-03-26T01:31:22.234Z,39.81
2023-03-26T01:32:23.723Z,39.81
2023-03-26T01:33:23.150Z,39.00
2023-03-26T01:34:22.191Z,38.06
2023-03-26T01:35:23.010Z,38.57
2023-03-26T01:36:23.649Z,39.40
2023-03-26T01:37:22.865Z,39.61
2023-03-26T01:38:23.004Z,40.12
2023-03-26T01:39:22.128Z,39.62
2023-03-26T01:40:22.840Z,38.69
2023-03-26T01:41:22.833Z,37.87
2023-03-26T01:42:22.106Z,37.87
2023-03-26T01:43:22.800Z,37.76
2023-03-26T01:44:22.796Z,38.49
2023-03-26T01:45:22.772Z,38.39
2023-03-26T01:46:22.780Z,38.69
2023-03-26T01:47:22.775Z,39.11
2023-03-26T01:48:22.708Z,40.34
2023-03-26T01:49:22.727Z,40.75
2023-03-26T01:50:21.994Z,41.69
2023-03-26T01:51:22.692Z,41.38
2023-03-26T01:52:22.671Z,40.78
2023-03-26T01:53:22.649Z,40.05
2023-03-26T01:54:22.651Z,37.78
2023-03-26T01:55:21.892Z,35.30
2023-03-26T01:56:22.627Z,35.41
2023-03-26T01:57:22.616Z,35.51
2023-03-26T01:58:21.860Z,35.30
2023-03-26T01:59:22.356Z,35.20
2023-03-26T02:00:22.349Z,34.48
2023-03-26T02:01:22.391Z,34.27
2023-03-26T02:02:22.645Z,34.38
2023-03-26T02:03:21.983Z,34.69
2023-03-26T02:04:22.343Z,33.03
2023-03-26T02:05:22.516Z,32.62
2023-03-26T02:06:22.351Z,32.42
2023-03-26T02:07:22.470Z,32.42
2023-03-26T02:08:22.455Z,32.10
2023-03-26T02:09:22.353Z,31.79
2023-03-26T02:10:22.439Z,31.69
2023-03-26T02:11:23.276Z,32.10
2023-03-26T02:12:22.345Z,31.48
2023-03-26T02:13:23.068Z,32.31
2023-03-26T02:14:22.356Z,32.51
2023-03-26T02:15:22.361Z,33.45
2023-03-26T02:16:23.098Z,32.51
2023-03-26T02:17:23.096Z,32.22
2023-03-26T02:18:23.052Z,32.32
2023-03-26T02:19:21.972Z,32.43
2023-03-26T02:20:22.991Z,31.81
2023-03-26T02:21:22.981Z,32.01
2023-03-26T02:22:21.646Z,31.40
2023-03-26T02:23:22.958Z,30.57
2023-03-26T02:24:22.248Z,30.66
2023-03-26T02:25:22.240Z,30.04
2023-03-26T02:26:22.208Z,29.11
2023-03-26T02:27:21.522Z,28.28
2023-03-26T02:28:22.168Z,28.78
2023-03-26T02:29:22.163Z,29.30
2023-03-26T02:30:21.949Z,29.61
2023-03-26T02:31:22.179Z,30.23
2023-03-26T02:32:22.184Z,30.95
2023-03-26T02:33:22.176Z,30.95
2023-03-26T02:34:22.076Z,31.47
2023-03-26T02:35:22.854Z,32.40
2023-03-26T02:36:22.932Z,33.02
2023-03-26T02:37:22.062Z,33.22
2023-03-26T02:38:22.044Z,34.24
2023-03-26T02:39:22.031Z,34.34
2023-03-26T02:40:22.707Z,35.48
2023-03-26T02:41:22.023Z,35.06
2023-03-26T02:42:22.215Z,36.10
2023-03-26T02:43:21.982Z,36.10
2023-03-26T02:44:21.955Z,35.99
2023-03-26T02:45:22.622Z,36.30
2023-03-26T02:46:21.248Z,36.82
2023-03-26T02:47:22.003Z,35.78
2023-03-26T02:48:22.154Z,35.68
2023-03-26T02:49:21.887Z,36.30
2023-03-26T02:50:22.557Z,36.71
2023-03-26T02:51:21.879Z,37.32
2023-03-26T02:52:21.852Z,38.24
2023-03-26T02:53:21.904Z,38.04
2023-03-26T02:54:21.805Z,38.56
2023-03-26T02:55:21.819Z,38.96
2023-03-26T02:56:21.816Z,39.89
2023-03-26T02:57:21.795Z,40.10
2023-03-26T02:58:21.780Z,40.20
2023-03-26T02:59:21.760Z,39.48
2023-03-26T03:00:21.040Z,38.86
2023-03-26T03:01:21.780Z,39.07
2023-03-26T03:02:21.766Z,39.17
2023-03-26T03:03:21.729Z,40.10
2023-03-26T03:04:21.677Z,39.69
2023-03-26T03:05:21.708Z,40.20
2023-03-26T03:06:21.200Z,40.31
2023-03-26T03:07:21.655Z,40.20
2023-03-26T03:08:21.664Z,40.92
2023-03-26T03:09:21.602Z,41.03
2023-03-26T03:10:21.368Z,40.92
2023-03-26T03:11:21.402Z,41.24
2023-03-26T03:12:21.583Z,40.10
2023-03-26T03:13:21.406Z,39.07
2023-03-26T03:14:21.551Z,38.14
2023-03-26T03:15:21.398Z,38.56
2023-03-26T03:16:22.264Z,39.59
2023-03-26T03:17:21.755Z,39.38
2023-03-26T03:18:21.404Z,40.20
2023-03-26T03:19:21.475Z,41.03
2023-03-26T03:20:21.487Z,40.72
2023-03-26T03:21:20.826Z,40.80
2023-03-26T03:22:21.404Z,41.42
2023-03-26T03:23:22.171Z,41.73
2023-03-26T03:24:22.163Z,41.01
2023-03-26T03:25:21.417Z,41.32
2023-03-26T03:26:21.404Z,41.83
2023-03-26T03:27:21.427Z,41.94
2023-03-26T03:28:22.123Z,42.04
2023-03-26T03:29:20.637Z,41.73
2023-03-26T03:30:21.361Z,41.73
2023-03-26T03:31:22.076Z,41.42
2023-03-26T03:32:21.362Z,41.32
2023-03-26T03:33:21.995Z,42.66
2023-03-26T03:34:21.278Z,41.42
2023-03-26T03:35:21.335Z,42.45
2023-03-26T03:36:21.786Z,43.69
2023-03-26T03:37:21.943Z,43.69
2023-03-26T03:38:21.259Z,42.45
2023-03-26T03:39:21.210Z,42.66
2023-03-26T03:40:21.221Z,43.69
2023-03-26T03:41:21.226Z,43.27
2023-03-26T03:42:21.194Z,44.08
2023-03-26T03:43:21.177Z,44.49
2023-03-26T03:44:21.154Z,44.59
2023-03-26T03:45:21.177Z,43.99
2023-03-26T03:46:21.167Z,43.59
2023-03-26T03:47:21.161Z,43.79
2023-03-26T03:48:21.109Z,44.41
2023-03-26T03:49:21.079Z,44.10
2023-03-26T03:50:21.092Z,44.62
2023-03-26T03:51:21.069Z,44.70
2023-03-26T03:52:20.556Z,45.32
2023-03-26T03:53:21.049Z,46.14
2023-03-26T03:54:21.038Z,44.90
2023-03-26T03:55:20.989Z,45.52
2023-03-26T03:56:21.021Z,45.52
2023-03-26T03:57:21.673Z,44.90
2023-03-26T03:58:21.719Z,45.42
2023-03-26T03:59:20.966Z,45.52
2023-03-26T04:00:20.939Z,46.34
2023-03-26T04:01:20.939Z,45.32
2023-03-26T04:02:21.658Z,46.34
2023-03-26T04:03:33.471Z,45.94
2023-03-26T04:04:21.955Z,45.52
2023-03-26T04:05:20.858Z,46.45
2023-03-26T04:06:20.868Z,45.83
2023-03-26T04:07:20.867Z,45.73
2023-03-26T04:08:20.841Z,46.14
2023-03-26T04:09:20.866Z,45.83
2023-03-26T04:10:20.798Z,46.34
2023-03-26T04:11:20.800Z,46.97
2023-03-26T04:12:20.786Z,47.06
2023-03-26T04:13:20.801Z,45.42
2023-03-26T04:14:20.798Z,46.14
2023-03-26T04:15:20.730Z,46.55
2023-03-26T04:16:20.795Z,45.94
2023-03-26T04:17:20.443Z,46.86
2023-03-26T04:18:20.709Z,46.66
2023-03-26T04:19:20.459Z,47.38
2023-03-26T04:20:20.443Z,46.66
2023-03-26T04:21:20.668Z,46.66
2023-03-26T04:22:20.660Z,46.34
2023-03-26T04:23:20.640Z,45.42
2023-03-26T04:24:20.627Z,45.32
2023-03-26T04:25:21.305Z,44.49
2023-03-26T04:26:20.076Z,44.49
2023-03-26T04:27:21.309Z,44.90
2023-03-26T04:28:20.567Z,44.59
2023-03-26T04:29:20.557Z,44.90
2023-03-26T04:30:20.560Z,43.77
2023-03-26T04:31:20.539Z,42.54
2023-03-26T04:32:20.311Z,42.33
2023-03-26T04:33:20.505Z,42.94
2023-03-26T04:34:20.488Z,42.43
2023-03-26T04:35:20.485Z,41.71
2023-03-26T04:36:20.468Z,42.12
2023-03-26T04:37:21.182Z,41.71
2023-03-26T04:38:21.170Z,39.75
2023-03-26T04:39:21.145Z,38.52
2023-03-26T04:40:21.165Z,38.00
2023-03-26T04:41:21.124Z,38.21
2023-03-26T04:42:21.117Z,38.73
2023-03-26T04:43:21.111Z,39.75
2023-03-26T04:44:21.045Z,39.75
2023-03-26T04:45:21.092Z,39.55
2023-03-26T04:46:21.087Z,41.30
2023-03-26T04:47:21.065Z,43.05
2023-03-26T04:48:21.043Z,44.37
2023-03-26T04:49:21.031Z,44.37
2023-03-26T04:50:21.018Z,43.54
2023-03-26T04:51:20.258Z,44.68
2023-03-26T04:52:21.000Z,42.62
2023-03-26T04:53:20.243Z,42.93
2023-03-26T04:54:20.902Z,41.30
2023-03-26T04:55:20.188Z,41.92
2023-03-26T04:56:20.197Z,42.33
2023-03-26T04:57:20.177Z,40.99
2023-03-26T04:58:20.168Z,40.58
2023-03-26T04:59:20.208Z,41.09
2023-03-26T05:00:20.121Z,40.89
2023-03-26T05:01:20.376Z,39.96
2023-03-26T05:02:20.803Z,40.17
2023-03-26T05:03:20.096Z,39.96
2023-03-26T05:04:20.112Z,39.14
2023-03-26T05:05:20.045Z,38.52
2023-03-26T05:06:20.056Z,38.21
2023-03-26T05:07:20.764Z,39.03
2023-03-26T05:08:20.706Z,39.45
2023-03-26T05:09:20.690Z,38.73
2023-03-26T05:10:20.006Z,38.82
2023-03-26T05:11:19.967Z,38.73
2023-03-26T05:12:19.976Z,38.93
2023-03-26T05:13:19.966Z,39.24
2023-03-26T05:14:19.945Z,40.47
2023-03-26T05:15:19.935Z,40.17
2023-03-26T05:16:19.961Z,40.06
2023-03-26T05:17:19.904Z,39.24
2023-03-26T05:18:19.936Z,39.03
2023-03-26T05:19:19.875Z,39.14
2023-03-26T05:20:19.876Z,38.62
2023-03-26T05:21:19.830Z,38.42
2023-03-26T05:22:19.836Z,38.31
2023-03-26T05:23:19.836Z,37.49
2023-03-26T05:24:20.051Z,37.70
2023-03-26T05:25:19.797Z,36.66
2023-03-26T05:26:19.783Z,35.94
2023-03-26T05:27:19.784Z,36.35
2023-03-26T05:28:19.796Z,36.66
2023-03-26T05:29:19.516Z,37.28
2023-03-26T05:30:19.520Z,38.10
2023-03-26T05:31:19.506Z,37.49
2023-03-26T05:32:19.502Z,37.28
2023-03-26T05:33:19.758Z,36.56
2023-03-26T05:34:19.674Z,37.38
2023-03-26T05:35:19.784Z,36.46
2023-03-26T05:36:19.634Z,34.31
2023-03-26T05:37:19.633Z,33.18
2023-03-26T05:38:19.523Z,32.46
2023-03-26T05:39:20.281Z,31.53
2023-03-26T05:40:19.639Z,30.19
2023-03-26T05:41:19.827Z,30.50
2023-03-26T05:42:19.569Z,29.26
2023-03-26T05:43:19.604Z,29.16
2023-03-26T05:44:19.563Z,29.05
2023-03-26T05:45:19.525Z,30.19
2023-03-26T05:46:19.536Z,29.57
2023-03-26T05:47:19.525Z,28.85
2023-03-26T05:48:19.491Z,29.57
2023-03-26T05:49:19.477Z,30.19
2023-03-26T05:50:19.477Z,30.28
2023-03-26T05:51:19.430Z,30.58
2023-03-26T05:52:19.485Z,31.41
2023-03-26T05:53:19.446Z,31.41
2023-03-26T05:54:19.408Z,31.62
2023-03-26T05:55:19.398Z,31.51
2023-03-26T05:56:19.375Z,31.10
2023-03-26T05:57:19.373Z,32.14
2023-03-26T05:58:20.044Z,31.82
2023-03-26T05:59:19.382Z,31.82
2023-03-26T06:00:19.328Z,30.79
2023-03-26T06:01:19.294Z,30.69
2023-03-26T06:02:19.295Z,29.86
2023-03-26T06:03:19.435Z,30.49
2023-03-26T06:04:19.324Z,30.49
2023-03-26T06:05:19.271Z,30.28
2023-03-26T06:06:19.939Z,31.31
2023-03-26T06:07:19.237Z,30.58
2023-03-26T06:08:19.217Z,31.31
2023-03-26T06:09:19.205Z,31.10
2023-03-26T06:10:19.884Z,31.00
2023-03-26T06:11:19.161Z,30.58
2023-03-26T06:12:19.166Z,31.93
2023-03-26T06:13:19.174Z,32.15
2023-03-26T06:14:19.141Z,31.12
2023-03-26T06:15:19.811Z,30.69
2023-03-26T06:16:25.979Z,31.41
2023-03-26T06:17:20.096Z,32.15
2023-03-26T06:18:18.405Z,32.97
2023-03-26T06:19:19.080Z,32.14
2023-03-26T06:20:19.067Z,32.34
2023-03-26T06:21:19.737Z,33.80
2023-03-26T06:22:19.029Z,32.86
2023-03-26T06:23:19.017Z,33.07
2023-03-26T06:24:19.023Z,33.69
2023-03-26T06:25:18.997Z,32.56
2023-03-26T06:26:18.972Z,32.97
2023-03-26T06:27:19.695Z,33.28
2023-03-26T06:28:19.643Z,32.23
2023-03-26T06:29:18.936Z,31.62
2023-03-26T06:30:18.935Z,32.34
2023-03-26T06:31:18.958Z,32.14
2023-03-26T06:32:20.407Z,32.34
2023-03-26T06:33:19.613Z,34.61
2023-03-26T06:34:18.881Z,32.34
2023-03-26T06:35:18.859Z,34.61
2023-03-26T06:36:18.900Z,32.86
2023-03-26T06:37:18.832Z,32.65
2023-03-26T06:38:18.834Z,32.34
2023-03-26T06:39:18.567Z,31.41
2023-03-26T06:40:18.556Z,31.51
2023-03-26T06:41:18.560Z,31.82
2023-03-26T06:42:18.579Z,31.93
2023-03-26T06:43:18.570Z,31.82
2023-03-26T06:44:18.761Z,32.14
2023-03-26T06:45:18.718Z,32.14
2023-03-26T06:46:18.729Z,32.34
2023-03-26T06:47:18.674Z,32.14
2023-03-26T06:48:19.367Z,31.62
2023-03-26T06:49:18.685Z,31.41
2023-03-26T06:50:18.578Z,31.21
2023-03-26T06:51:18.642Z,30.49
2023-03-26T06:52:18.605Z,30.49
2023-03-26T06:53:18.038Z,29.86
2023-03-26T06:54:18.602Z,30.38
2023-03-26T06:55:19.321Z,29.35
2023-03-26T06:56:18.601Z,29.66
2023-03-26T06:57:19.291Z,30.49
2023-03-26T06:58:18.580Z,29.86
2023-03-26T06:59:18.176Z,29.56
2023-03-26T07:00:19.243Z,29.35
2023-03-26T07:01:18.606Z,28.94
2023-03-26T07:02:18.494Z,30.18
2023-03-26T07:03:18.481Z,28.74
2023-03-26T07:04:18.521Z,28.63
2023-03-26T07:05:18.469Z,29.36
2023-03-26T07:06:18.489Z,28.44
2023-03-26T07:07:18.453Z,27.51
2023-03-26T07:08:18.430Z,28.54
2023-03-26T07:09:19.082Z,27.51
2023-03-26T07:10:18.399Z,27.30
2023-03-26T07:11:18.401Z,27.39
2023-03-26T07:12:19.060Z,28.33
2023-03-26T07:13:18.575Z,27.91
2023-03-26T07:14:18.341Z,27.51
2023-03-26T07:15:18.331Z,27.39
2023-03-26T07:16:18.402Z,28.54
2023-03-26T07:17:18.489Z,27.50
2023-03-26T07:18:18.252Z,27.50
2023-03-26T07:19:18.264Z,27.70
2023-03-26T07:20:18.261Z,27.91
2023-03-26T07:21:18.244Z,27.48
2023-03-26T07:22:18.226Z,29.24
2023-03-26T07:23:18.201Z,30.26
2023-03-26T07:24:18.225Z,30.16
2023-03-26T07:25:18.204Z,29.64
2023-03-26T07:26:18.196Z,29.24
2023-03-26T07:27:18.176Z,30.99
2023-03-26T07:28:18.127Z,30.26
2023-03-26T07:29:18.151Z,30.78
2023-03-26T07:30:18.129Z,29.34
2023-03-26T07:31:18.822Z,29.24
2023-03-26T07:32:19.117Z,29.02
2023-03-26T07:33:18.059Z,30.25
2023-03-26T07:34:18.744Z,30.66
2023-03-26T07:35:18.081Z,30.46
2023-03-26T07:36:18.038Z,30.35
2023-03-26T07:37:18.065Z,29.62
2023-03-26T07:38:17.997Z,29.72
2023-03-26T07:39:18.008Z,29.52
2023-03-26T07:40:17.996Z,31.57
2023-03-26T07:41:17.249Z,31.88
2023-03-26T07:42:18.228Z,32.91
2023-03-26T07:43:17.912Z,32.38
2023-03-26T07:44:17.942Z,33.84
2023-03-26T07:45:17.910Z,30.96
2023-03-26T07:46:17.954Z,29.93
2023-03-26T07:47:17.891Z,28.69
2023-03-26T07:48:17.855Z,29.71
2023-03-26T07:49:17.613Z,30.74
2023-03-26T07:50:18.417Z,30.43
2023-03-26T07:51:17.833Z,29.71
2023-03-26T07:52:17.158Z,29.71
2023-03-26T07:53:17.169Z,30.12
2023-03-26T07:54:17.201Z,29.81
2023-03-26T07:55:17.788Z,30.52
2023-03-26T07:56:17.856Z,30.82
2023-03-26T07:57:17.330Z,32.06
2023-03-26T07:58:17.709Z,31.54
2023-03-26T07:59:17.732Z,33.09
2023-03-26T08:00:17.935Z,32.76
2023-03-26T08:01:17.695Z,35.72
2023-03-26T08:02:17.439Z,37.77
2023-03-26T08:03:17.768Z,38.90
2023-03-26T08:04:23.713Z,39.52
2023-03-26T08:05:18.985Z,39.01
2023-03-26T08:06:18.353Z,37.66
2023-03-26T08:07:17.613Z,43.81
2023-03-26T08:08:16.887Z,41.35
2023-03-26T08:09:17.569Z,39.81
2023-03-26T08:10:18.253Z,44.43
2023-03-26T08:11:17.584Z,42.05
2023-03-26T08:12:18.224Z,46.15
2023-03-26T08:13:17.533Z,46.13
2023-03-26T08:14:17.507Z,49.31
2023-03-26T08:15:18.169Z,51.85
2023-03-26T08:16:17.552Z,50.82
2023-03-26T08:17:16.869Z,55.23
2023-03-26T08:18:16.878Z,54.28
2023-03-26T08:19:17.429Z,59.71
2023-03-26T08:20:17.455Z,57.46
2023-03-26T08:21:17.431Z,54.77
2023-03-26T08:22:17.411Z,59.35
2023-03-26T08:23:17.399Z,54.31
2023-03-26T08:24:16.652Z,64.39
2023-03-26T08:25:17.366Z,56.74
2023-03-26T08:26:16.633Z,54.18
2023-03-26T08:27:17.379Z,52.44
2023-03-26T08:28:17.382Z,52.95
2023-03-26T08:29:17.550Z,49.67
2023-03-26T08:30:17.994Z,57.89
2023-03-26T08:31:17.320Z,52.34
2023-03-26T08:32:17.289Z,51.31
2023-03-26T08:33:17.260Z,50.26
2023-03-26T08:34:17.229Z,57.33
2023-03-26T08:35:17.258Z,54.97
2023-03-26T08:36:17.216Z,56.20
2023-03-26T08:37:17.208Z,64.90
2023-03-26T08:38:17.193Z,59.25
2023-03-26T08:39:17.150Z,61.09
2023-03-26T08:40:17.239Z,57.81
2023-03-26T08:41:17.154Z,54.31
2023-03-26T08:42:17.139Z,64.77
2023-03-26T08:43:17.113Z,63.24
2023-03-26T08:44:17.097Z,60.58
2023-03-26T08:45:17.149Z,61.50
2023-03-26T08:46:17.126Z,59.14
2023-03-26T08:47:17.083Z,61.19
2023-03-26T08:48:17.056Z,60.17
2023-03-26T08:49:17.025Z,67.64
2023-03-26T08:50:16.520Z,67.94
2023-03-26T08:51:17.025Z,63.57
2023-03-26T08:52:16.993Z,58.25
2023-03-26T08:53:16.994Z,61.45
2023-03-26T08:54:16.943Z,61.04
2023-03-26T08:55:16.732Z,63.40
2023-03-26T08:56:16.751Z,61.76
2023-03-26T08:57:16.783Z,54.36
2023-03-26T08:58:16.340Z,65.18
2023-03-26T08:59:16.876Z,69.48
2023-03-26T09:00:16.669Z,61.09
2023-03-26T09:01:16.794Z,85.71
2023-03-26T09:02:17.531Z,83.98
2023-03-26T09:03:16.664Z,95.65
2023-03-26T09:04:17.109Z,93.84
2023-03-26T09:05:16.122Z,99.99
2023-03-26T09:06:16.661Z,93.55
2023-03-26T09:07:17.478Z,86.88
2023-03-26T09:08:16.702Z,89.90
2023-03-26T09:09:19.200Z,86.63
2023-03-26T09:10:16.979Z,91.46
2023-03-26T09:11:16.670Z,91.26
2023-03-26T09:12:16.676Z,88.22
2023-03-26T09:13:16.676Z,89.73
2023-03-26T09:14:16.687Z,96.19
2023-03-26T09:15:17.397Z,92.10
2023-03-26T09:16:16.711Z,87.77
2023-03-26T09:17:16.694Z,92.81
2023-03-26T09:18:17.320Z,85.24
2023-03-26T09:19:15.930Z,86.71
2023-03-26T09:20:16.646Z,84.81
2023-03-26T09:21:15.971Z,87.30
2023-03-26T09:22:16.806Z,83.25
2023-03-26T09:23:17.261Z,84.89
2023-03-26T09:24:16.542Z,75.68
2023-03-26T09:25:16.554Z,79.88
2023-03-26T09:26:17.224Z,80.33
2023-03-26T09:27:17.186Z,73.44
2023-03-26T09:28:16.728Z,69.96
2023-03-26T09:29:16.217Z,66.07
2023-03-26T09:30:16.483Z,74.46
2023-03-26T09:31:16.268Z,77.91
2023-03-26T09:32:15.718Z,76.13
2023-03-26T09:33:16.440Z,71.53
2023-03-26T09:34:16.690Z,79.10
2023-03-26T09:35:16.423Z,78.38
2023-03-26T09:36:16.401Z,84.83
2023-03-26T09:37:16.391Z,78.31
2023-03-26T09:38:16.419Z,74.08
2023-03-26T09:39:16.357Z,75.42
2023-03-26T09:40:16.331Z,72.99
2023-03-26T09:41:17.015Z,73.13
2023-03-26T09:42:16.318Z,72.72
2023-03-26T09:43:16.309Z,74.15
2023-03-26T09:44:16.291Z,75.11
2023-03-26T09:45:16.256Z,66.06
2023-03-26T09:46:16.299Z,67.80
2023-03-26T09:47:16.251Z,74.11
2023-03-26T09:48:15.708Z,78.69
2023-03-26T09:49:16.220Z,78.00
2023-03-26T09:50:16.895Z,88.33
2023-03-26T09:51:16.197Z,84.96
2023-03-26T09:52:16.854Z,96.03
2023-03-26T09:53:16.159Z,98.36
2023-03-26T09:54:15.723Z,99.99
2023-03-26T09:55:16.121Z,96.06
2023-03-26T09:56:15.525Z,94.65
2023-03-26T09:57:16.245Z,99.36
2023-03-26T09:58:16.112Z,85.66
2023-03-26T09:59:16.081Z,92.49
2023-03-26T10:00:16.068Z,99.99
2023-03-26T10:01:16.090Z,99.99
2023-03-26T10:02:16.048Z,97.63
2023-03-26T10:03:16.161Z,96.88
2023-03-26T10:04:16.046Z,90.92
2023-03-26T10:05:15.984Z,88.81
2023-03-26T10:06:15.992Z,73.52
2023-03-26T10:07:15.343Z,81.91
2023-03-26T10:08:15.969Z,94.98
2023-03-26T10:09:15.943Z,87.02
2023-03-26T10:10:15.412Z,93.62
2023-03-26T10:11:15.932Z,99.58
2023-03-26T10:12:15.479Z,99.99
2023-03-26T10:13:15.893Z,99.99
2023-03-26T10:14:15.886Z,99.99
2023-03-26T10:15:16.117Z,98.74
2023-03-26T10:16:15.632Z,99.99
2023-03-26T10:17:15.613Z,99.99
2023-03-26T10:18:26.638Z,97.95
2023-03-26T10:19:16.832Z,98.93
2023-03-26T10:20:15.710Z,99.99
2023-03-26T10:21:15.835Z,99.99
2023-03-26T10:22:15.778Z,99.61
2023-03-26T10:23:16.745Z,99.99
2023-03-26T10:24:16.462Z,99.99
2023-03-26T10:25:15.721Z,99.99
2023-03-26T10:26:15.723Z,95.98
2023-03-26T10:27:15.710Z,99.99
2023-03-26T10:28:15.010Z,99.99
2023-03-26T10:29:15.703Z,99.49
2023-03-26T10:30:15.636Z,94.95
2023-03-26T10:31:15.746Z,99.75
2023-03-26T10:32:15.649Z,99.99
2023-03-26T10:33:15.029Z,99.59
2023-03-26T10:34:28.933Z,99.99
2023-03-26T10:35:16.601Z,99.99
2023-03-26T10:36:14.997Z,99.99
2023-03-26T10:37:15.595Z,99.80
2023-03-26T10:38:15.572Z,98.90
2023-03-26T10:39:37.654Z,96.15
2023-03-26T10:40:16.296Z,93.40
2023-03-26T10:41:14.792Z,96.66
2023-03-26T10:42:15.499Z,90.83
2023-03-26T10:43:15.479Z,97.71
2023-03-26T10:44:14.745Z,94.85
2023-03-26T10:45:15.499Z,98.48
2023-03-26T10:46:15.625Z,87.16
2023-03-26T10:47:15.420Z,92.61
2023-03-26T10:48:15.418Z,96.69
2023-03-26T10:49:14.770Z,98.32
2023-03-26T10:50:22.621Z,98.89
2023-03-26T10:51:16.341Z,92.55
2023-03-26T10:52:15.346Z,95.16
2023-03-26T10:53:15.337Z,92.61
2023-03-26T10:54:15.337Z,96.48
2023-03-26T10:55:15.312Z,93.73
2023-03-26T10:56:15.267Z,94.91
2023-03-26T10:57:15.311Z,94.09
2023-03-26T10:58:15.265Z,96.64
2023-03-26T10:59:15.277Z,98.18
2023-03-26T11:00:14.518Z,95.57
2023-03-26T11:01:15.233Z,93.59
2023-03-26T11:02:15.218Z,91.35
2023-03-26T11:03:15.233Z,89.40
2023-03-26T11:04:15.189Z,92.11
2023-03-26T11:05:15.189Z,93.54
2023-03-26T11:06:15.162Z,87.26
2023-03-26T11:07:15.876Z,89.00
2023-03-26T11:08:14.410Z,91.65
2023-03-26T11:09:15.134Z,93.48
2023-03-26T11:10:15.118Z,90.12
2023-03-26T11:11:15.073Z,91.69
2023-03-26T11:12:25.517Z,94.56
2023-03-26T11:13:16.085Z,85.90
2023-03-26T11:14:21.639Z,88.24
2023-03-26T11:15:16.058Z,80.56
2023-03-26T11:16:15.028Z,78.01
2023-03-26T11:17:15.001Z,79.33
2023-03-26T11:18:16.094Z,77.32
2023-03-26T11:19:14.774Z,66.06
2023-03-26T11:20:14.973Z,62.26
2023-03-26T11:21:18.682Z,64.07
2023-03-26T11:22:15.520Z,69.91
2023-03-26T11:23:14.934Z,76.72
2023-03-26T11:24:14.201Z,68.83
2023-03-26T11:25:14.917Z,72.38
2023-03-26T11:26:14.878Z,66.19
2023-03-26T11:27:16.510Z,68.12
2023-03-26T11:28:14.785Z,69.84
2023-03-26T11:29:31.721Z,72.08
2023-03-26T11:30:16.079Z,68.52
2023-03-26T11:31:15.798Z,66.72
2023-03-26T11:32:14.280Z,68.35
2023-03-26T11:33:14.813Z,70.75
2023-03-26T11:34:15.492Z,68.45
2023-03-26T11:35:14.808Z,67.10
2023-03-26T11:36:14.790Z,65.27
2023-03-26T11:37:14.764Z,63.42
2023-03-26T11:38:15.455Z,61.71
2023-03-26T11:39:14.724Z,65.41
2023-03-26T11:40:14.032Z,64.20
2023-03-26T11:41:14.665Z,61.78
2023-03-26T11:42:14.683Z,58.43
2023-03-26T11:43:14.655Z,55.72
2023-03-26T11:44:14.664Z,54.83
2023-03-26T11:45:14.646Z,52.77
2023-03-26T11:46:14.644Z,52.92
2023-03-26T11:47:14.618Z,52.19
2023-03-26T11:48:14.616Z,51.61
2023-03-26T11:49:14.590Z,52.64
2023-03-26T11:50:14.575Z,55.77
2023-03-26T11:51:14.538Z,56.57
2023-03-26T11:52:14.547Z,55.68
2023-03-26T11:53:14.579Z,56.02
2023-03-26T11:54:14.520Z,54.25
2023-03-26T11:55:14.502Z,55.69
2023-03-26T11:56:13.762Z,56.20
2023-03-26T11:57:14.569Z,54.58
2023-03-26T11:58:14.469Z,54.84
2023-03-26T11:59:13.907Z,56.84
2023-03-26T12:00:14.426Z,53.40
2023-03-26T12:01:14.402Z,52.22
2023-03-26T12:02:14.451Z,51.89
2023-03-26T12:03:14.465Z,51.06
2023-03-26T12:04:14.413Z,51.48
2023-03-26T12:05:14.612Z,52.23
2023-03-26T12:06:14.338Z,55.98
2023-03-26T12:07:14.300Z,56.41
2023-03-26T12:08:14.337Z,56.86
2023-03-26T12:09:14.308Z,55.50
2023-03-26T12:10:18.853Z,56.74
2023-03-26T12:11:16.004Z,55.70
2023-03-26T12:12:13.831Z,55.43
2023-03-26T12:13:14.254Z,55.88
2023-03-26T12:14:14.247Z,57.73
2023-03-26T12:15:13.818Z,58.45
2023-03-26T12:16:14.275Z,59.18
2023-03-26T12:17:14.183Z,57.97
2023-03-26T12:18:14.235Z,58.29
2023-03-26T12:19:14.171Z,59.24
2023-03-26T12:20:13.467Z,58.45
2023-03-26T12:21:14.164Z,59.70
2023-03-26T12:22:14.108Z,61.46
2023-03-26T12:23:13.567Z,61.53
2023-03-26T12:24:14.121Z,61.10
2023-03-26T12:25:14.081Z,59.82
2023-03-26T12:26:14.073Z,61.24
2023-03-26T12:27:14.030Z,59.54
2023-03-26T12:28:14.068Z,61.24
2023-03-26T12:29:14.029Z,58.42
2023-03-26T12:30:14.018Z,61.27
2023-03-26T12:31:13.799Z,62.39
2023-03-26T12:32:14.058Z,65.97
2023-03-26T12:33:14.701Z,64.69
2023-03-26T12:34:13.951Z,68.11
2023-03-26T12:35:13.947Z,66.46
2023-03-26T12:36:13.825Z,65.44
2023-03-26T12:37:13.882Z,65.44
2023-03-26T12:38:13.908Z,64.25
2023-03-26T12:39:42.748Z,64.15
2023-03-26T12:40:18.182Z,67.77
2023-03-26T12:44:42.446Z,64.15
2023-03-26T12:44:44.553Z,69.33
2023-03-26T12:44:50.337Z,65.47
2023-03-26T12:44:56.401Z,65.77
2023-03-26T12:45:15.480Z,64.07
2023-03-26T12:47:54.060Z,67.83
2023-03-26T12:48:01.473Z,65.63
2023-03-26T12:48:15.693Z,66.82
2023-03-26T12:49:13.909Z,65.80
2023-03-26T12:50:13.786Z,68.01
2023-03-26T12:51:14.442Z,67.19
2023-03-26T12:52:13.749Z,66.69